Time;durP1;ratioP1;P1;durP2;ratioP2;P2;SDS_P1;SDS_P2;PMS_P1;PMS_P2;Temp;Humidity;BMP_temperature;BMP_pressure;BME280_temperature;BME280_humidity;BME280_pressure;Samples;Min_cycle;Max_cycle;Signal;HPM_P1;HPM_P2
2023/05/21 00:02:10;;;;;;;3.65;2.20;;;;;;;9.86;100.00;92489.94;4936803;29;20043;-76
2023/05/21 00:04:40;;;;;;;5.72;2.40;;;;;;;9.86;100.00;92484.72;4937299;29;20349;-76
2023/05/21 00:07:07;;;;;;;4.22;2.58;;;;;;;9.86;100.00;92484.72;4936592;29;20035;-76
2023/05/21 00:09:33;;;;;;;7.30;2.35;;;;;;;9.86;100.00;92480.28;4953748;29;20089;-76
2023/05/21 00:11:59;;;;;;;7.40;2.40;;;;;;;9.86;100.00;92479.47;4936625;29;20035;-76
2023/05/21 00:14:25;;;;;;;5.55;2.33;;;;;;;9.88;100.00;92477.38;4952446;28;20037;-76
2023/05/21 00:16:51;;;;;;;3.97;2.30;;;;;;;9.85;100.00;92470.88;4936367;29;20093;-75
2023/05/21 00:19:16;;;;;;;5.50;2.60;;;;;;;9.86;100.00;92479.47;4953620;29;20042;-76
2023/05/21 00:21:44;;;;;;;6.38;2.63;;;;;;;9.84;100.00;92476.38;4936635;29;20050;-75
2023/05/21 00:24:10;;;;;;;7.82;2.83;;;;;;;9.83;100.00;92470.38;4953534;28;20031;-76
2023/05/21 00:26:37;;;;;;;4.22;2.50;;;;;;;9.83;100.00;92472.22;4953782;29;20371;-76
2023/05/21 00:29:03;;;;;;;5.13;2.40;;;;;;;9.83;100.00;92462.53;4935746;29;20517;-76
2023/05/21 00:31:29;;;;;;;5.80;2.45;;;;;;;9.85;100.00;92454.41;4935933;29;20043;-76
2023/05/21 00:33:54;;;;;;;4.60;2.65;;;;;;;9.84;100.00;92463.28;4936211;29;20035;-76
2023/05/21 00:36:22;;;;;;;4.53;2.60;;;;;;;9.83;100.00;92459.13;4953486;29;20050;-76
2023/05/21 00:38:51;;;;;;;4.13;2.65;;;;;;;9.82;100.00;92457.56;4936196;29;20090;-76
2023/05/21 00:41:17;;;;;;;4.47;2.40;;;;;;;9.80;100.00;92450.81;4935860;29;20457;-76
2023/05/21 00:43:43;;;;;;;5.00;3.03;;;;;;;9.81;100.00;92446.34;4935971;29;20031;-76
2023/05/21 00:46:15;;;;;;;4.85;2.40;;;;;;;9.79;100.00;92433.56;4935816;29;20617;-76
2023/05/21 00:48:42;;;;;;;3.83;2.40;;;;;;;9.79;100.00;92438.81;4953354;29;20135;-75
2023/05/21 00:51:08;;;;;;;4.22;2.50;;;;;;;9.80;100.00;92437.72;4953405;29;20031;-75
2023/05/21 00:53:35;;;;;;;4.90;2.42;;;;;;;9.86;100.00;92435.03;4933279;29;20141;-76
2023/05/21 00:56:01;;;;;;;5.35;2.53;;;;;;;9.80;100.00;92440.34;4936245;29;20082;-75
2023/05/21 00:58:28;;;;;;;4.55;2.50;;;;;;;9.77;100.00;92432.28;4953011;29;20050;-76
2023/05/21 01:00:57;;;;;;;4.35;2.28;;;;;;;9.76;100.00;92431.50;4936019;29;20039;-75
2023/05/21 01:03:22;;;;;;;4.28;2.40;;;;;;;9.75;100.00;92427.34;4953265;28;20520;-76
2023/05/21 01:05:52;;;;;;;4.65;2.35;;;;;;;9.75;100.00;92422.13;4953088;29;20027;-76
2023/05/21 01:08:20;;;;;;;5.55;2.50;;;;;;;9.78;100.00;92447.69;4953118;29;20046;-76
2023/05/21 01:10:48;;;;;;;4.63;2.10;;;;;;;9.74;100.00;92444.06;4952994;29;20031;-76
2023/05/21 01:13:15;;;;;;;3.40;2.00;;;;;;;9.73;100.00;92416.38;4951636;28;20043;-76
2023/05/21 01:15:43;;;;;;;3.50;2.08;;;;;;;9.75;100.00;92416.13;4953350;29;20043;-76
2023/05/21 01:18:09;;;;;;;4.35;2.33;;;;;;;9.74;100.00;92420.56;4951853;29;20054;-76
2023/05/21 01:20:36;;;;;;;4.20;2.30;;;;;;;9.74;100.00;92431.00;4936002;29;20046;-76
2023/05/21 01:23:02;;;;;;;3.85;2.40;;;;;;;9.75;100.00;92419.50;4951710;28;20058;-76
2023/05/21 01:25:28;;;;;;;4.13;2.30;;;;;;;9.76;100.00;92410.59;4935815;29;20031;-76
2023/05/21 01:27:54;;;;;;;4.43;2.30;;;;;;;9.75;100.00;92416.13;4951907;29;20465;-76
2023/05/21 01:30:22;;;;;;;4.40;2.33;;;;;;;9.74;100.00;92410.09;4951706;29;20031;-76
2023/05/21 01:32:58;;;;;;;4.35;2.13;;;;;;;9.73;100.00;92405.16;4952877;28;20073;-76
2023/05/21 01:35:34;;;;;;;7.22;2.40;;;;;;;9.73;100.00;92403.31;4951464;29;20416;-76
2023/05/21 01:38:06;;;;;;;6.78;2.13;;;;;;;9.74;100.00;92415.31;4951805;29;20497;-76
2023/05/21 01:40:46;;;;;;;4.70;2.45;;;;;;;9.74;100.00;92411.94;4951568;29;20043;-76
2023/05/21 01:43:13;;;;;;;3.58;2.00;;;;;;;9.74;100.00;92410.09;4952585;28;20126;-76
2023/05/21 01:45:41;;;;;;;3.90;2.10;;;;;;;9.73;100.00;92405.94;4952561;29;20086;-76
2023/05/21 01:48:08;;;;;;;4.03;2.00;;;;;;;9.72;100.00;92401.75;4952591;29;20527;-76
2023/05/21 01:50:36;;;;;;;3.63;2.00;;;;;;;9.72;100.00;92401.75;4951459;29;20478;-76
2023/05/21 01:53:04;;;;;;;5.07;2.17;;;;;;;9.70;100.00;92411.72;4952885;28;20075;-76
2023/05/21 01:55:30;;;;;;;4.00;2.22;;;;;;;9.71;100.00;92408.06;4939140;29;20122;-75
2023/05/21 01:57:58;;;;;;;3.65;2.20;;;;;;;9.72;100.00;92399.13;4954673;29;20477;-76
2023/05/21 02:00:27;;;;;;;3.83;2.10;;;;;;;9.70;100.00;92398.63;4954904;29;20052;-76
2023/05/21 02:02:53;;;;;;;10.82;2.28;;;;;;;9.71;100.00;92402.81;4954721;28;20058;-76
2023/05/21 02:05:18;;;;;;;3.67;1.98;;;;;;;9.70;100.00;92403.88;4956071;29;20508;-76
2023/05/21 02:07:46;;;;;;;3.42;2.03;;;;;;;9.69;100.00;92407.56;4938678;29;20070;-76
2023/05/21 02:10:12;;;;;;;4.00;2.10;;;;;;;9.68;100.00;92400.78;4955762;29;20031;-75
2023/05/21 02:12:38;;;;;;;3.50;2.03;;;;;;;9.69;100.00;92402.31;4938714;29;20501;-76
2023/05/21 02:15:04;;;;;;;4.18;2.28;;;;;;;9.69;100.00;92401.56;4938462;29;20043;-76
2023/05/21 02:17:32;;;;;;;3.97;1.85;;;;;;;9.67;100.00;92401.81;4938645;29;20047;-76
2023/05/21 02:20:11;;;;;;;3.42;1.92;;;;;;;9.65;100.00;92398.72;4938951;29;20110;-76
2023/05/21 02:22:42;;;;;;;2.90;1.80;;;;;;;9.65;100.00;92397.94;4938492;29;20051;-76
2023/05/21 02:25:09;;;;;;;4.05;2.20;;;;;;;9.63;100.00;92398.22;4954774;28;20467;-76
2023/05/21 02:27:36;;;;;;;4.35;1.90;;;;;;;9.62;100.00;92393.28;4938525;29;20038;-76
2023/05/21 02:30:03;;;;;;;3.50;1.98;;;;;;;9.61;100.00;92395.09;4938736;29;20413;-76
2023/05/21 02:32:30;;;;;;;4.00;1.80;;;;;;;9.61;100.00;92386.50;4955490;29;20086;-76
2023/05/21 02:34:57;;;;;;;4.03;1.95;;;;;;;9.59;100.00;92387.56;4955403;28;20093;-76
2023/05/21 02:37:26;;;;;;;7.43;2.20;;;;;;;9.61;100.00;92395.09;4938412;29;20027;-76
2023/05/21 02:39:55;;;;;;;5.30;1.90;;;;;;;9.61;100.00;92394.34;4938085;29;20134;-76
2023/05/21 02:42:25;;;;;;;7.28;1.98;;;;;;;9.58;100.00;92386.00;4938194;29;20035;-76
2023/05/21 02:44:51;;;;;;;3.78;2.20;;;;;;;9.58;100.00;92380.78;4937958;29;20075;-75
2023/05/21 02:47:18;;;;;;;3.88;1.80;;;;;;;9.57;100.00;92379.22;4937798;29;20034;-76
2023/05/21 02:49:44;;;;;;;3.90;1.95;;;;;;;9.59;100.00;92384.97;4938021;29;20071;-76
2023/05/21 02:52:10;;;;;;;3.97;2.20;;;;;;;9.61;100.00;92387.25;4954933;29;20039;-76
2023/05/21 02:54:35;;;;;;;2.78;1.70;;;;;;;9.59;100.00;92384.16;4937816;29;20039;-76
2023/05/21 02:57:01;;;;;;;3.38;1.98;;;;;;;9.59;100.00;92386.78;4955003;29;20047;-76
2023/05/21 02:59:27;;;;;;;3.97;2.03;;;;;;;9.58;100.00;92380.00;4937768;29;20042;-76
2023/05/21 03:01:52;;;;;;;3.75;1.85;;;;;;;9.57;100.00;92383.69;4937871;29;20031;-76
2023/05/21 03:04:20;;;;;;;5.10;2.10;;;;;;;9.58;100.00;92382.63;4937076;29;20043;-76
2023/05/21 03:06:47;;;;;;;5.75;1.73;;;;;;;9.57;100.00;92388.91;4955010;29;20027;-76
2023/05/21 03:09:13;;;;;;;8.43;2.50;;;;;;;9.58;100.00;92387.84;4954979;29;20082;-76
2023/05/21 03:11:38;;;;;;;6.28;3.42;;;;;;;9.59;100.00;92386.78;4938176;29;20027;-76
2023/05/21 03:14:05;;;;;;;7.22;2.70;;;;;;;9.61;100.00;92384.66;4954719;28;20143;-76
2023/05/21 03:16:33;;;;;;;4.03;2.28;;;;;;;9.60;100.00;92383.13;4921973;29;20036;-76
2023/05/21 03:18:59;;;;;;;3.80;2.20;;;;;;;9.60;100.00;92393.56;4937404;29;20035;-76
2023/05/21 03:21:25;;;;;;;5.22;2.20;;;;;;;9.59;100.00;92389.38;4954717;29;20047;-76
2023/05/21 03:23:51;;;;;;;3.70;2.10;;;;;;;9.59;100.00;92386.78;4954565;28;20571;-76
2023/05/21 03:26:17;;;;;;;3.50;2.10;;;;;;;9.58;100.00;92372.94;4937480;29;20070;-76
2023/05/21 03:28:43;;;;;;;5.45;2.42;;;;;;;9.58;100.00;92380.00;4937287;29;20129;-76
2023/05/21 03:31:08;;;;;;;5.07;2.50;;;;;;;9.58;100.00;92380.00;4937017;29;20035;-76
2023/05/21 03:33:57;;;;;;;5.07;2.30;;;;;;;9.58;100.00;92380.00;4953308;28;20058;-76
2023/05/21 03:36:27;;;;;;;7.00;2.60;;;;;;;9.60;100.00;92380.50;4937132;29;20505;-76
2023/05/21 03:38:54;;;;;;;6.82;2.53;;;;;;;9.59;100.00;92371.09;4937231;29;20046;-76
2023/05/21 03:41:20;;;;;;;5.07;2.22;;;;;;;9.60;100.00;92383.13;4921541;29;20035;-76
2023/05/21 03:43:50;;;;;;;4.60;2.47;;;;;;;9.60;100.00;92385.72;4937150;29;20039;-75
2023/05/21 03:46:17;;;;;;;4.18;2.35;;;;;;;9.60;100.00;92383.13;4936560;29;20043;-76
2023/05/21 03:48:48;;;;;;;3.90;2.10;;;;;;;9.59;100.00;92381.53;4937767;29;20039;-76
2023/05/21 03:51:16;;;;;;;3.80;2.20;;;;;;;9.77;100.00;92382.59;4936996;29;20046;-76
2023/05/21 03:53:42;;;;;;;4.22;2.10;;;;;;;9.67;100.00;92383.53;4936498;29;20078;-76
2023/05/21 03:56:08;;;;;;;3.80;1.88;;;;;;;9.63;100.00;92390.38;4936791;29;20449;-76
2023/05/21 03:58:33;;;;;;;5.07;2.20;;;;;;;9.62;100.00;92391.44;4936935;29;20311;-76
2023/05/21 04:01:01;;;;;;;3.13;1.88;;;;;;;9.61;100.00;92397.72;4937021;29;20560;-76
2023/05/21 04:03:27;;;;;;;4.43;2.05;;;;;;;9.62;100.00;92404.53;4952718;28;20125;-76
2023/05/21 04:05:53;;;;;;;3.30;1.80;;;;;;;9.64;100.00;92409.47;4933601;29;20497;-76
2023/05/21 04:08:18;;;;;;;3.40;1.90;;;;;;;9.65;100.00;92403.94;4936460;29;20174;-76
2023/05/21 04:10:44;;;;;;;3.40;1.92;;;;;;;9.66;100.00;92407.31;4953756;29;20054;-76
2023/05/21 04:13:10;;;;;;;3.10;1.70;;;;;;;9.67;100.00;92407.06;4952402;28;20031;-76
2023/05/21 04:15:37;;;;;;;3.83;1.77;;;;;;;9.68;100.00;92400.78;4935680;29;20497;-76
2023/05/21 04:18:03;;;;;;;4.72;2.08;;;;;;;9.72;100.00;92414.06;4952628;29;20034;-76
2023/05/21 04:20:29;;;;;;;3.80;1.73;;;;;;;9.72;100.00;92409.59;4936672;29;20047;-75
2023/05/21 04:22:55;;;;;;;6.18;2.08;;;;;;;9.71;100.00;92413.28;4953582;28;20020;-76
2023/05/21 04:25:22;;;;;;;3.38;1.98;;;;;;;9.72;100.00;92412.22;4936570;29;20043;-75
2023/05/21 04:27:48;;;;;;;3.72;2.17;;;;;;;9.72;100.00;92404.38;4936107;29;20027;-76
2023/05/21 04:30:14;;;;;;;3.15;1.98;;;;;;;9.72;100.00;92412.22;4936397;29;20134;-76
2023/05/21 04:32:44;;;;;;;3.97;2.10;;;;;;;9.73;100.00;92420.84;4936289;29;20111;-76
2023/05/21 04:35:11;;;;;;;3.70;2.20;;;;;;;9.73;100.00;92418.25;4952418;28;20161;-76
2023/05/21 04:37:40;;;;;;;5.30;1.85;;;;;;;9.74;100.00;92425.00;4936173;29;20102;-76
2023/05/21 04:40:10;;;;;;;3.45;2.00;;;;;;;9.79;100.00;92424.94;4920077;29;20561;-76
2023/05/21 04:42:35;;;;;;;5.57;2.10;;;;;;;9.97;100.00;92431.22;4953485;29;20437;-76
2023/05/21 04:45:02;;;;;;;3.60;1.92;;;;;;;10.02;100.00;92431.16;4951557;28;20042;-76
2023/05/21 04:47:34;;;;;;;3.10;1.80;;;;;;;9.92;100.00;92442.53;4936168;29;20062;-76
2023/05/21 04:50:03;;;;;;;3.90;1.52;;;;;;;9.88;100.00;92438.91;4936076;29;20077;-76
2023/05/21 04:52:29;;;;;;;3.47;2.03;;;;;;;9.85;100.00;92455.19;4953063;29;20536;-76
2023/05/21 04:54:56;;;;;;;5.60;1.80;;;;;;;9.87;100.00;92449.69;4953100;28;20122;-75
2023/05/21 04:57:23;;;;;;;4.95;1.98;;;;;;;9.87;100.00;92434.00;4922333;29;20043;-76
2023/05/21 04:59:49;;;;;;;4.38;2.00;;;;;;;9.91;100.00;92438.38;4936729;29;20065;-76
2023/05/21 05:02:14;;;;;;;3.10;1.80;;;;;;;9.95;100.00;92444.59;4935596;29;20122;-76
2023/05/21 05:04:42;;;;;;;5.60;1.95;;;;;;;9.97;100.00;92439.88;4921839;29;20039;-76
2023/05/21 05:07:08;;;;;;;3.97;2.38;;;;;;;10.01;100.00;92442.69;4929187;29;20038;-76
2023/05/21 05:09:34;;;;;;;8.35;3.08;;;;;;;10.05;100.00;92435.81;4953240;29;20058;-76
2023/05/21 05:12:00;;;;;;;4.65;2.63;;;;;;;10.08;100.00;92435.25;4936012;29;20058;-76
2023/05/21 05:14:26;;;;;;;3.33;2.10;;;;;;;10.12;100.00;92431.00;4935481;29;20046;-76
2023/05/21 05:16:52;;;;;;;6.22;2.30;;;;;;;10.17;100.00;92432.78;4952903;29;20035;-75
2023/05/21 05:19:19;;;;;;;6.28;2.70;;;;;;;10.19;100.00;92428.81;4951833;29;20100;-75
2023/05/21 05:21:45;;;;;;;6.13;2.40;;;;;;;10.24;100.00;92416.72;4951687;29;20102;-76
2023/05/21 05:24:11;;;;;;;4.15;2.40;;;;;;;10.26;100.00;92414.59;4919872;29;20043;-75
2023/05/21 05:26:36;;;;;;;5.00;2.72;;;;;;;10.28;100.00;92402.00;4937074;29;20401;-76
2023/05/21 05:29:02;;;;;;;5.63;3.10;;;;;;;10.28;100.00;92405.41;4955617;29;20035;-76
2023/05/21 05:31:27;;;;;;;5.25;3.00;;;;;;;10.30;100.00;92402.53;4923832;29;20477;-76
2023/05/21 05:33:54;;;;;;;5.78;3.30;;;;;;;10.32;100.00;92403.03;4954838;28;20050;-76
2023/05/21 05:36:21;;;;;;;4.93;2.80;;;;;;;10.34;100.00;92412.13;4939015;29;20382;-76
2023/05/21 05:38:46;;;;;;;4.75;2.28;;;;;;;10.29;100.00;92409.63;4939399;29;20536;-76
2023/05/21 05:41:12;;;;;;;3.30;2.00;;;;;;;10.31;100.00;92406.69;4939427;29;20114;-76
2023/05/21 05:43:38;;;;;;;5.47;2.25;;;;;;;10.35;100.00;92402.44;4936634;29;20043;-78
2023/05/21 05:46:03;;;;;;;4.03;2.33;;;;;;;10.40;100.00;92399.75;4946948;29;20023;-77
2023/05/21 05:48:29;;;;;;;4.70;2.58;;;;;;;10.46;100.00;92403.84;4939320;29;20098;-76
2023/05/21 05:50:56;;;;;;;6.55;2.95;;;;;;;10.51;100.00;92400.34;4955522;29;20039;-77
2023/05/21 05:53:24;;;;;;;4.95;3.03;;;;;;;10.57;100.00;92396.59;4908706;29;20142;-75
2023/05/21 05:55:49;;;;;;;5.43;2.97;;;;;;;10.64;100.00;92394.38;4955481;29;20122;-76
2023/05/21 05:58:15;;;;;;;4.90;2.85;;;;;;;10.72;100.00;92396.34;4923607;29;20043;-76
2023/05/21 06:01:06;;;;;;;5.65;2.95;;;;;;;10.82;100.00;92398.78;4939380;29;20039;-76
2023/05/21 06:03:32;;;;;;;6.22;2.92;;;;;;;10.91;100.00;92393.63;4907990;29;20070;-76
2023/05/21 06:06:05;;;;;;;5.85;2.83;;;;;;;11.00;100.00;92388.50;4939811;29;20054;-76
2023/05/21 06:08:33;;;;;;;4.57;2.95;;;;;;;11.06;100.00;92389.22;4939306;29;20485;-77
2023/05/21 06:10:59;;;;;;;4.68;2.80;;;;;;;11.13;100.00;92394.84;4956852;29;20043;-77
2023/05/21 06:13:25;;;;;;;4.97;2.70;;;;;;;11.21;100.00;92391.50;4956788;28;20070;-77
2023/05/21 06:15:52;;;;;;;4.00;2.50;;;;;;;11.27;100.00;92395.59;4956151;29;20454;-76
2023/05/21 06:18:17;;;;;;;4.05;2.35;;;;;;;11.35;100.00;92394.13;4938812;29;20084;-76
2023/05/21 06:20:43;;;;;;;4.07;2.47;;;;;;;11.41;100.00;92395.59;4940174;29;20034;-76
2023/05/21 06:23:09;;;;;;;6.68;2.53;;;;;;;11.49;100.00;92402.00;4955372;28;20569;-76
2023/05/21 06:25:35;;;;;;;3.72;2.28;;;;;;;11.57;100.00;92398.66;4923446;29;20038;-75
2023/05/21 06:28:01;;;;;;;5.22;2.00;;;;;;;11.58;100.00;92395.75;4939229;29;20047;-76
2023/05/21 06:30:28;;;;;;;4.28;2.10;;;;;;;11.58;100.00;92392.38;4935896;29;20055;-76
2023/05/21 06:32:54;;;;;;;5.80;2.20;;;;;;;11.58;100.00;92395.75;4935083;29;20043;-77
2023/05/21 06:35:20;;;;;;;4.00;2.10;;;;;;;11.60;100.00;92391.00;4949099;29;20040;-76
2023/05/21 06:37:47;;;;;;;6.72;2.53;;;;;;;11.63;100.00;92392.25;4937898;29;20062;-77
2023/05/21 06:40:13;;;;;;;5.53;2.65;;;;;;;11.71;100.00;92388.16;4937978;29;20134;-76
2023/05/21 06:42:39;;;;;;;5.25;2.67;;;;;;;11.76;100.00;92398.56;4924803;29;20036;-76
2023/05/21 06:45:24;;;;;;;4.80;2.90;;;;;;;11.84;100.00;92401.25;4956290;28;20074;-78
2023/05/21 06:47:53;;;;;;;4.72;3.08;;;;;;;11.99;100.00;92389.66;4951907;28;20409;-77
2023/05/21 06:50:20;;;;;;;6.13;2.92;;;;;;;12.10;100.00;92395.47;4936726;29;20083;-76
2023/05/21 06:52:52;;;;;;;5.03;3.10;;;;;;;12.05;100.00;92392.97;4927150;29;20134;-77
2023/05/21 06:55:19;;;;;;;5.43;3.38;;;;;;;12.05;100.00;92390.34;4955931;28;20105;-76
2023/05/21 06:58:08;;;;;;;5.45;3.25;;;;;;;12.07;100.00;92396.06;4920122;29;20797;-76
2023/05/21 07:00:33;;;;;;;6.05;3.13;;;;;;;12.27;100.00;92392.97;4951338;29;20044;-77
2023/05/21 07:02:59;;;;;;;4.93;3.08;;;;;;;12.20;100.00;92395.22;4947733;28;20139;-78
2023/05/21 07:05:25;;;;;;;5.00;3.20;;;;;;;12.18;100.00;92389.53;4956401;28;20046;-77
2023/05/21 07:07:53;;;;;;;6.38;3.35;;;;;;;12.22;100.00;92390.47;4953564;29;20141;-77
2023/05/21 07:10:18;;;;;;;5.55;3.42;;;;;;;12.26;100.00;92393.28;4952231;29;20059;-77
2023/05/21 07:12:44;;;;;;;4.85;3.25;;;;;;;12.32;100.00;92396.56;4952457;29;20102;-79
2023/05/21 07:15:10;;;;;;;9.35;3.60;;;;;;;12.39;100.00;92395.06;4936354;29;20047;-79
2023/05/21 07:17:36;;;;;;;5.28;3.08;;;;;;;12.47;100.00;92394.34;4952256;29;20517;-78
2023/05/21 07:20:05;;;;;;;5.32;3.35;;;;;;;12.55;100.00;92392.06;4923424;29;20478;-78
2023/05/21 07:22:31;;;;;;;5.25;3.47;;;;;;;12.66;100.00;92399.41;4956949;29;20034;-78
2023/05/21 07:24:56;;;;;;;6.35;3.35;;;;;;;12.73;100.00;92395.56;4954230;28;20043;-79
2023/05/21 07:27:22;;;;;;;6.13;3.60;;;;;;;12.80;100.00;92396.69;4918758;29;20059;-77
2023/05/21 07:29:48;;;;;;;6.32;3.40;;;;;;;12.74;100.00;92397.13;4950095;28;20485;-78
2023/05/21 07:32:14;;;;;;;4.88;2.90;;;;;;;12.69;100.00;92396.16;4953345;28;20045;-79
2023/05/21 07:34:40;;;;;;;4.60;2.80;;;;;;;12.64;100.00;92398.16;4935683;29;20126;-79
2023/05/21 07:37:05;;;;;;;5.65;3.00;;;;;;;12.63;100.00;92399.22;4948418;29;20450;-79
2023/05/21 07:39:31;;;;;;;7.68;3.05;;;;;;;12.69;100.00;92390.91;4956610;29;20122;-78
2023/05/21 07:41:57;;;;;;;6.57;3.50;;;;;;;12.82;100.00;92401.66;4956954;29;20074;-79
2023/05/21 07:44:23;;;;;;;5.18;3.20;;;;;;;12.89;100.00;92399.38;4935590;29;20050;-79
2023/05/21 07:46:49;;;;;;;5.78;2.90;;;;;;;12.88;100.00;92395.97;4956030;29;20035;-78
2023/05/21 07:49:15;;;;;;;5.53;3.05;;;;;;;13.02;100.00;92392.47;4937377;29;20036;-77
2023/05/21 07:51:42;;;;;;;6.07;3.88;;;;;;;13.11;100.00;92388.03;4953101;29;20393;-76
2023/05/21 07:54:09;;;;;;;5.20;3.20;;;;;;;13.22;100.00;92396.41;4911028;29;20051;-77
2023/05/21 07:56:35;;;;;;;5.85;3.83;;;;;;;13.31;100.00;92399.88;4953977;29;20039;-78
2023/05/21 07:59:01;;;;;;;6.60;3.80;;;;;;;13.39;100.00;92396.47;4953983;29;20039;-78
2023/05/21 08:01:28;;;;;;;5.78;3.38;;;;;;;13.47;100.00;92394.97;4951727;29;20050;-77
2023/05/21 08:03:54;;;;;;;6.25;3.40;;;;;;;13.52;100.00;92389.56;4951707;28;20038;-78
2023/05/21 08:06:21;;;;;;;4.88;2.95;;;;;;;13.56;100.00;92390.50;4945454;28;20028;-78
2023/05/21 08:08:46;;;;;;;5.50;3.38;;;;;;;13.59;100.00;92397.00;4951182;28;20351;-81
2023/05/21 08:11:12;;;;;;;5.50;3.13;;;;;;;13.56;100.00;92389.75;4949387;28;20039;-78
2023/05/21 08:13:39;;;;;;;6.10;3.28;;;;;;;13.57;100.00;92391.28;4933601;29;20071;-78
2023/05/21 08:16:06;;;;;;;5.70;3.20;;;;;;;13.59;100.00;92399.63;4937185;29;20035;-79
2023/05/21 08:18:33;;;;;;;5.25;2.75;;;;;;;13.57;100.00;92399.16;4944687;29;20118;-79
2023/05/21 08:20:59;;;;;;;6.10;2.63;;;;;;;13.43;100.00;92397.44;4940484;28;20046;-78
2023/05/21 08:23:26;;;;;;;4.53;2.92;;;;;;;13.44;100.00;92393.75;4931923;29;20130;-78
2023/05/21 08:25:56;;;;;;;4.25;2.70;;;;;;;13.41;100.00;92399.59;4944873;29;20140;-79
2023/05/21 08:28:22;;;;;;;9.05;3.10;;;;;;;13.27;100.00;92398.91;4954490;28;20063;-79
2023/05/21 08:30:48;;;;;;;4.63;2.60;;;;;;;13.21;100.00;92413.25;4962793;28;20075;-78
2023/05/21 08:33:15;;;;;;;4.70;2.58;;;;;;;13.08;100.00;92410.44;4939240;28;20043;-79
2023/05/21 08:35:46;;;;;;;4.80;2.58;;;;;;;13.17;100.00;92415.72;4952773;29;20042;-77
2023/05/21 08:38:19;;;;;;;5.43;2.88;;;;;;;13.22;100.00;92417.44;4954438;28;20042;-79
2023/05/21 08:41:12;;;;;;;4.47;2.80;;;;;;;13.40;100.00;92403.31;4922594;29;20077;-79
2023/05/21 08:43:38;;;;;;;5.32;3.08;;;;;;;13.49;100.00;92406.72;4942270;29;20481;-78
2023/05/21 08:46:05;;;;;;;5.25;2.83;;;;;;;13.61;100.00;92402.75;4936803;29;20035;-78
2023/05/21 08:48:36;;;;;;;5.68;3.45;;;;;;;13.75;100.00;92409.41;4920243;29;20050;-78
2023/05/21 08:51:02;;;;;;;5.78;3.10;;;;;;;13.86;100.00;92404.63;4956667;29;20043;-79
2023/05/21 08:53:37;;;;;;;5.68;2.92;;;;;;;13.93;100.00;92409.44;4956545;28;20110;-79
2023/05/21 08:56:07;;;;;;;5.80;2.90;;;;;;;13.92;100.00;92408.66;4939527;29;20040;-79
2023/05/21 08:58:54;;;;;;;4.70;2.70;;;;;;;13.80;100.00;92411.13;4955920;29;20066;-78
2023/05/21 09:01:22;;;;;;;5.45;2.97;;;;;;;13.79;100.00;92412.22;4940939;29;20041;-79
2023/05/21 09:03:55;;;;;;;;;;;;;;;13.70;100.00;92406.16;4949475;29;20042;-79
2023/05/21 09:06:22;;;;;;;5.03;2.80;;;;;;;13.62;100.00;92409.53;4960180;28;19918;-78
2023/05/21 09:08:58;;;;;;;10.60;3.00;;;;;;;13.64;100.00;92407.38;4936568;29;20035;-78
2023/05/21 09:11:33;;;;;;;6.40;3.05;;;;;;;13.63;100.00;92411.09;4957217;28;20310;-78
2023/05/21 09:14:00;;;;;;;5.63;2.95;;;;;;;13.61;100.00;92410.63;4943279;29;20039;-78
2023/05/21 09:16:52;;;;;;;8.43;3.30;;;;;;;13.60;100.00;92411.69;4944193;29;20035;-77
2023/05/21 09:19:21;;;;;;;8.40;2.85;;;;;;;13.54;100.00;92414.47;4939850;29;20071;-77
2023/05/21 09:21:50;;;;;;;9.88;2.80;;;;;;;13.48;100.00;92420.19;4955670;28;20057;-81
2023/05/21 09:24:21;;;;;;;7.78;2.92;;;;;;;13.42;100.00;92421.38;4943093;29;20643;-78
2023/05/21 09:26:48;;;;;;;6.88;2.60;;;;;;;13.30;100.00;92425.38;4959675;28;20031;-78
2023/05/21 09:29:13;;;;;;;5.32;2.90;;;;;;;13.23;100.00;92430.25;4943687;29;20431;-81
2023/05/21 09:31:45;;;;;;;4.80;3.08;;;;;;;13.22;100.00;92430.59;4957727;28;20043;-78
2023/05/21 09:34:13;;;;;;;5.68;3.33;;;;;;;13.28;100.00;92432.81;4931309;29;20058;-79
2023/05/21 09:36:39;;;;;;;7.30;2.90;;;;;;;13.26;100.00;92428.88;4930099;29;20170;-78
2023/05/21 09:39:05;;;;;;;4.90;2.85;;;;;;;13.22;100.00;92438.47;4945823;29;20126;-79
2023/05/21 09:41:45;;;;;;;4.82;3.10;;;;;;;13.21;100.00;92439.53;4946011;28;20038;-80
2023/05/21 09:44:11;;;;;;;6.10;2.97;;;;;;;13.15;100.00;92448.63;4939029;29;20036;-80
2023/05/21 09:46:40;;;;;;;7.50;3.10;;;;;;;13.11;100.00;92451.88;4937107;29;20026;-80
2023/05/21 09:49:43;;;;;;;5.32;2.70;;;;;;;13.13;100.00;92460.22;4962362;28;20050;-80
2023/05/21 09:52:09;;;;;;;4.85;3.03;;;;;;;13.15;100.00;92453.88;4927073;28;20063;-79
2023/05/21 09:54:34;;;;;;;6.22;3.22;;;;;;;13.16;100.00;92452.81;4946136;28;20408;-78
2023/05/21 09:57:03;;;;;;;6.95;3.40;;;;;;;13.19;100.00;92452.19;4965812;28;20039;-79
2023/05/21 09:59:38;;;;;;;5.20;3.45;;;;;;;13.23;100.00;92458.41;4961750;29;20511;-79
2023/05/21 10:02:16;;;;;;;5.72;3.50;;;;;;;13.27;100.00;92464.63;4929714;29;20452;-79
2023/05/21 10:04:46;;;;;;;8.02;3.58;;;;;;;13.28;100.00;92468.81;4963242;28;20070;-79
2023/05/21 10:07:24;;;;;;;7.28;3.50;;;;;;;13.30;100.00;92471.91;4945844;29;20118;-77
2023/05/21 10:09:56;;;;;;;8.23;3.85;;;;;;;13.30;100.00;92472.69;4956295;29;20077;-79
2023/05/21 10:12:26;;;;;;;5.43;3.22;;;;;;;13.08;100.00;92475.34;4960523;28;20050;-76
2023/05/21 10:15:03;;;;;;;84.05;35.53;;;;;;;13.11;100.00;92470.25;4955020;28;20501;-77
2023/05/21 10:17:29;;;;;;;28.33;14.60;;;;;;;13.19;100.00;92468.75;4938149;29;20047;-76
2023/05/21 10:19:56;;;;;;;14.75;7.88;;;;;;;13.39;100.00;92475.34;4953407;28;20038;-75
2023/05/21 10:22:24;;;;;;;28.95;20.90;;;;;;;13.57;100.00;92478.06;4953287;28;20124;-82
2023/05/21 10:24:53;;;;;;;14.68;7.95;;;;;;;13.72;100.00;92488.19;4957732;28;20031;-78
2023/05/21 10:27:21;;;;;;;25.35;18.67;;;;;;;13.90;100.00;92478.47;4945256;29;20036;-81
2023/05/21 10:29:48;;;;;;;17.73;9.25;;;;;;;13.94;100.00;92477.56;4958955;28;20058;-80
2023/05/21 10:32:15;;;;;;;17.42;12.80;;;;;;;14.05;100.00;92477.25;4960151;28;20047;-82
2023/05/21 10:34:42;;;;;;;308.15;183.95;;;;;;;14.29;100.00;92474.19;4958980;28;20027;-78
2023/05/21 10:37:09;;;;;;;31.90;19.88;;;;;;;14.51;100.00;92465.38;4957174;28;20043;-78
2023/05/21 10:39:37;;;;;;;15.05;9.50;;;;;;;14.68;100.00;92465.41;4957061;29;20058;-79
2023/05/21 10:42:28;;;;;;;7.22;4.15;;;;;;;14.73;100.00;92457.34;4958030;28;20062;-82
2023/05/21 10:45:03;;;;;;;6.13;3.47;;;;;;;14.65;100.00;92460.75;4957098;28;20055;-82
2023/05/21 10:48:00;;;;;;;5.75;2.95;;;;;;;14.56;100.00;92463.38;4956990;28;20038;-81
2023/05/21 10:50:43;;;;;;;6.43;3.83;;;;;;;14.40;100.00;92461.50;4957908;28;20535;-81
2023/05/21 10:53:42;;;;;;;5.90;4.00;;;;;;;14.29;100.00;92469.69;4957370;28;20113;-80
2023/05/21 10:56:29;;;;;;;11.90;7.40;;;;;;;14.27;100.00;92463.97;4956887;28;20493;-80
2023/05/21 10:59:08;;;;;;;8.57;3.88;;;;;;;14.27;100.00;92463.97;4943244;28;20319;-82
2023/05/21 11:01:36;;;;;;;8.38;3.53;;;;;;;14.29;100.00;92461.78;4959332;28;20094;-81
2023/05/21 11:04:03;;;;;;;5.38;3.70;;;;;;;14.33;100.00;92467.22;4956450;28;20038;-79
2023/05/21 11:06:29;;;;;;;9.65;3.78;;;;;;;14.40;100.00;92464.13;4958396;29;20499;-80
2023/05/21 11:08:55;;;;;;;5.75;3.85;;;;;;;14.36;100.00;92464.78;4955171;28;20049;-82
2023/05/21 11:11:44;;;;;;;6.63;3.28;;;;;;;14.42;100.00;92462.75;4956495;28;20047;-79
2023/05/21 11:14:36;;;;;;;7.45;4.22;;;;;;;14.52;100.00;92466.91;4956538;28;20336;-78
2023/05/21 11:17:05;;;;;;;6.85;3.65;;;;;;;14.54;100.00;92460.28;4941611;29;20416;-79
2023/05/21 11:19:37;;;;;;;5.40;3.22;;;;;;;14.44;100.00;92465.84;4963841;28;20039;-79
2023/05/21 11:22:25;;;;;;;8.77;3.50;;;;;;;14.37;100.00;92470.81;4956465;28;20059;-78
2023/05/21 11:24:52;;;;;;;6.13;3.50;;;;;;;14.44;100.00;92467.72;4955907;28;20065;-79
2023/05/21 11:27:33;;;;;;;6.60;3.65;;;;;;;14.51;100.00;92462.75;4954873;28;20063;-78
2023/05/21 11:29:59;;;;;;;6.68;3.75;;;;;;;14.45;100.00;92463.97;4957189;29;20264;-79
2023/05/21 11:32:25;;;;;;;8.50;3.75;;;;;;;14.43;100.00;92460.88;4957213;29;20057;-78
2023/05/21 11:34:51;;;;;;;8.63;3.92;;;;;;;14.51;100.00;92457.47;4956816;28;20122;-79
2023/05/21 11:39:46;;;;;;;8.50;4.32;;;;;;;14.30;100.00;92460.72;4942458;28;20031;-76